Williams, Iowa
Current Conditions -  °F | °C
As of 6:35 PM on Monday 24 Nov 2014 (Local Time) from KIFA Reporting Station
Light Snow Light Snow  
Wind Chill:   Ceiling: 2100
Heat Index: 22°   Visibility: 10mi
Dew Point: 17°   Wind: 26mph
Humidity: 80%   Direction: 290°WNW
Pressure: 29.8"   Gusts: 32mph
Location:  42.49°N, 93.54°W
Report Text: KIFA 250035Z AUTO 29023G28KT 10SM -SN BKN021 OVC028 M05/M08 A2980 RMK AO2 T10551085
Loading
Personal Weather Stations






























Interactive Weather Map New forecast layout! Learn more

10-Day Weather Forecast

Advertisements
Track Severe Weather on mobile